sensor_id;sensor_type;location;lat;lon;timestamp;P1;durP1;ratioP1;P2;durP2;ratioP2
34725;SDS011;20951;50.818;4.344;2023-04-24T00:00:00;27.85;;;17.67;;
34725;SDS011;20951;50.818;4.344;2023-04-24T00:02:36;28.42;;;17.38;;
34725;SDS011;20951;50.818;4.344;2023-04-24T00:05:11;26.45;;;17.17;;
34725;SDS011;20951;50.818;4.344;2023-04-24T00:07:43;30.15;;;16.52;;
34725;SDS011;20951;50.818;4.344;2023-04-24T00:10:19;28.35;;;17.55;;
34725;SDS011;20951;50.818;4.344;2023-04-24T00:12:55;25.67;;;17.92;;
34725;SDS011;20951;50.818;4.344;2023-04-24T00:15:21;26.88;;;18.00;;
34725;SDS011;20951;50.818;4.344;2023-04-24T00:17:56;31.92;;;17.25;;
34725;SDS011;20951;50.818;4.344;2023-04-24T00:20:31;25.30;;;17.45;;
34725;SDS011;20951;50.818;4.344;2023-04-24T00:23:03;30.38;;;17.35;;
34725;SDS011;20951;50.818;4.344;2023-04-24T00:25:29;29.33;;;17.40;;
34725;SDS011;20951;50.818;4.344;2023-04-24T00:27:54;30.42;;;17.48;;
34725;SDS011;20951;50.818;4.344;2023-04-24T00:30:29;29.90;;;17.85;;
34725;SDS011;20951;50.818;4.344;2023-04-24T00:33:08;34.05;;;19.10;;
34725;SDS011;20951;50.818;4.344;2023-04-24T00:35:46;29.60;;;17.40;;
34725;SDS011;20951;50.818;4.344;2023-04-24T00:38:12;28.55;;;17.98;;
34725;SDS011;20951;50.818;4.344;2023-04-24T00:40:41;28.73;;;17.58;;
34725;SDS011;20951;50.818;4.344;2023-04-24T00:43:16;31.13;;;17.70;;
34725;SDS011;20951;50.818;4.344;2023-04-24T00:45:52;31.10;;;18.05;;
34725;SDS011;20951;50.818;4.344;2023-04-24T00:48:19;30.33;;;17.38;;
34725;SDS011;20951;50.818;4.344;2023-04-24T00:50:58;28.75;;;17.38;;
34725;SDS011;20951;50.818;4.344;2023-04-24T00:53:24;28.70;;;18.63;;
34725;SDS011;20951;50.818;4.344;2023-04-24T00:55:50;29.88;;;18.17;;
34725;SDS011;20951;50.818;4.344;2023-04-24T00:58:26;29.00;;;17.95;;
34725;SDS011;20951;50.818;4.344;2023-04-24T01:00:55;31.13;;;17.63;;
34725;SDS011;20951;50.818;4.344;2023-04-24T01:03:24;28.33;;;17.67;;
34725;SDS011;20951;50.818;4.344;2023-04-24T01:06:05;28.23;;;18.30;;
34725;SDS011;20951;50.818;4.344;2023-04-24T01:08:47;28.73;;;18.10;;
34725;SDS011;20951;50.818;4.344;2023-04-24T01:11:15;32.65;;;19.27;;
34725;SDS011;20951;50.818;4.344;2023-04-24T01:13:46;28.33;;;18.25;;
34725;SDS011;20951;50.818;4.344;2023-04-24T01:16:25;34.00;;;18.85;;
34725;SDS011;20951;50.818;4.344;2023-04-24T01:18:56;29.48;;;19.20;;
34725;SDS011;20951;50.818;4.344;2023-04-24T01:21:26;30.17;;;20.77;;
34725;SDS011;20951;50.818;4.344;2023-04-24T01:24:00;34.75;;;21.17;;
34725;SDS011;20951;50.818;4.344;2023-04-24T01:26:28;33.58;;;19.95;;
34725;SDS011;20951;50.818;4.344;2023-04-24T01:28:54;26.92;;;19.98;;
34725;SDS011;20951;50.818;4.344;2023-04-24T01:31:23;30.42;;;18.33;;
34725;SDS011;20951;50.818;4.344;2023-04-24T01:34:02;25.77;;;18.17;;
34725;SDS011;20951;50.818;4.344;2023-04-24T01:36:48;26.80;;;18.38;;
34725;SDS011;20951;50.818;4.344;2023-04-24T01:39:25;24.13;;;17.77;;
34725;SDS011;20951;50.818;4.344;2023-04-24T01:42:10;27.75;;;17.70;;
34725;SDS011;20951;50.818;4.344;2023-04-24T01:45:03;31.17;;;17.67;;
34725;SDS011;20951;50.818;4.344;2023-04-24T01:47:40;30.50;;;18.67;;
34725;SDS011;20951;50.818;4.344;2023-04-24T01:50:19;34.10;;;20.95;;
34725;SDS011;20951;50.818;4.344;2023-04-24T01:52:48;32.92;;;21.05;;
34725;SDS011;20951;50.818;4.344;2023-04-24T01:55:14;34.03;;;21.77;;
34725;SDS011;20951;50.818;4.344;2023-04-24T01:57:50;34.15;;;22.48;;
34725;SDS011;20951;50.818;4.344;2023-04-24T02:00:21;31.42;;;22.17;;
34725;SDS011;20951;50.818;4.344;2023-04-24T02:02:53;30.23;;;22.67;;
34725;SDS011;20951;50.818;4.344;2023-04-24T02:05:23;33.28;;;21.00;;
34725;SDS011;20951;50.818;4.344;2023-04-24T02:07:59;36.85;;;21.48;;
34725;SDS011;20951;50.818;4.344;2023-04-24T02:10:25;38.10;;;24.05;;
34725;SDS011;20951;50.818;4.344;2023-04-24T02:13:15;33.45;;;23.13;;
34725;SDS011;20951;50.818;4.344;2023-04-24T02:15:51;37.30;;;24.33;;
34725;SDS011;20951;50.818;4.344;2023-04-24T02:18:27;38.95;;;24.08;;
34725;SDS011;20951;50.818;4.344;2023-04-24T02:21:11;35.00;;;24.50;;
34725;SDS011;20951;50.818;4.344;2023-04-24T02:23:39;40.08;;;24.90;;
34725;SDS011;20951;50.818;4.344;2023-04-24T02:26:18;34.72;;;24.40;;
34725;SDS011;20951;50.818;4.344;2023-04-24T02:28:49;35.13;;;22.75;;
34725;SDS011;20951;50.818;4.344;2023-04-24T02:31:26;34.17;;;22.80;;
34725;SDS011;20951;50.818;4.344;2023-04-24T02:33:52;35.88;;;23.05;;
34725;SDS011;20951;50.818;4.344;2023-04-24T02:36:27;30.88;;;22.55;;
34725;SDS011;20951;50.818;4.344;2023-04-24T02:38:53;31.95;;;22.23;;
34725;SDS011;20951;50.818;4.344;2023-04-24T02:41:24;32.42;;;21.77;;
34725;SDS011;20951;50.818;4.344;2023-04-24T02:44:09;37.08;;;23.90;;
34725;SDS011;20951;50.818;4.344;2023-04-24T02:46:57;32.20;;;21.77;;
34725;SDS011;20951;50.818;4.344;2023-04-24T02:49:33;28.77;;;20.88;;
34725;SDS011;20951;50.818;4.344;2023-04-24T02:52:12;33.10;;;20.67;;
34725;SDS011;20951;50.818;4.344;2023-04-24T02:54:48;30.25;;;22.02;;
34725;SDS011;20951;50.818;4.344;2023-04-24T02:57:24;32.60;;;20.83;;
34725;SDS011;20951;50.818;4.344;2023-04-24T03:00:02;31.42;;;20.58;;
34725;SDS011;20951;50.818;4.344;2023-04-24T03:02:44;32.45;;;20.98;;
34725;SDS011;20951;50.818;4.344;2023-04-24T03:05:22;28.83;;;18.83;;
34725;SDS011;20951;50.818;4.344;2023-04-24T03:08:00;29.02;;;18.90;;
34725;SDS011;20951;50.818;4.344;2023-04-24T03:10:29;26.60;;;17.63;;
34725;SDS011;20951;50.818;4.344;2023-04-24T03:13:05;26.90;;;17.77;;
34725;SDS011;20951;50.818;4.344;2023-04-24T03:15:41;27.85;;;18.88;;
34725;SDS011;20951;50.818;4.344;2023-04-24T03:18:17;27.30;;;17.25;;
34725;SDS011;20951;50.818;4.344;2023-04-24T03:20:48;28.98;;;17.63;;
34725;SDS011;20951;50.818;4.344;2023-04-24T03:23:26;28.17;;;17.42;;
34725;SDS011;20951;50.818;4.344;2023-04-24T03:26:00;25.92;;;15.98;;
34725;SDS011;20951;50.818;4.344;2023-04-24T03:28:43;29.85;;;17.38;;
34725;SDS011;20951;50.818;4.344;2023-04-24T03:31:24;26.92;;;17.15;;
34725;SDS011;20951;50.818;4.344;2023-04-24T03:34:07;25.13;;;16.88;;
34725;SDS011;20951;50.818;4.344;2023-04-24T03:36:43;29.13;;;17.60;;
34725;SDS011;20951;50.818;4.344;2023-04-24T03:39:19;25.23;;;15.52;;
34725;SDS011;20951;50.818;4.344;2023-04-24T03:41:53;23.70;;;14.50;;
34725;SDS011;20951;50.818;4.344;2023-04-24T03:44:32;22.42;;;16.02;;
34725;SDS011;20951;50.818;4.344;2023-04-24T03:46:58;23.27;;;15.52;;
34725;SDS011;20951;50.818;4.344;2023-04-24T03:49:40;23.98;;;15.55;;
34725;SDS011;20951;50.818;4.344;2023-04-24T03:52:18;24.38;;;14.43;;
34725;SDS011;20951;50.818;4.344;2023-04-24T03:54:53;19.15;;;12.70;;
34725;SDS011;20951;50.818;4.344;2023-04-24T03:57:21;18.02;;;13.10;;
34725;SDS011;20951;50.818;4.344;2023-04-24T03:59:52;22.10;;;13.50;;
34725;SDS011;20951;50.818;4.344;2023-04-24T04:02:18;22.15;;;14.30;;
34725;SDS011;20951;50.818;4.344;2023-04-24T04:04:47;19.60;;;13.95;;
34725;SDS011;20951;50.818;4.344;2023-04-24T04:07:24;19.17;;;13.52;;
34725;SDS011;20951;50.818;4.344;2023-04-24T04:09:57;18.23;;;13.23;;
34725;SDS011;20951;50.818;4.344;2023-04-24T04:12:33;18.88;;;11.82;;
34725;SDS011;20951;50.818;4.344;2023-04-24T04:15:02;19.58;;;11.88;;
34725;SDS011;20951;50.818;4.344;2023-04-24T04:17:28;15.15;;;10.85;;
34725;SDS011;20951;50.818;4.344;2023-04-24T04:19:57;16.38;;;11.88;;
34725;SDS011;20951;50.818;4.344;2023-04-24T04:22:33;16.42;;;10.68;;
34725;SDS011;20951;50.818;4.344;2023-04-24T04:24:59;17.05;;;10.65;;
34725;SDS011;20951;50.818;4.344;2023-04-24T04:27:28;15.77;;;11.05;;
34725;SDS011;20951;50.818;4.344;2023-04-24T04:29:57;14.80;;;11.10;;
34725;SDS011;20951;50.818;4.344;2023-04-24T04:32:28;17.08;;;11.13;;
34725;SDS011;20951;50.818;4.344;2023-04-24T04:34:53;14.20;;;10.48;;
34725;SDS011;20951;50.818;4.344;2023-04-24T04:37:30;15.18;;;10.65;;
34725;SDS011;20951;50.818;4.344;2023-04-24T04:39:56;16.85;;;11.20;;
34725;SDS011;20951;50.818;4.344;2023-04-24T04:42:25;14.93;;;9.80;;
34725;SDS011;20951;50.818;4.344;2023-04-24T04:47:36;18.23;;;10.55;;
34725;SDS011;20951;50.818;4.344;2023-04-24T04:50:15;18.83;;;12.45;;
34725;SDS011;20951;50.818;4.344;2023-04-24T04:52:50;19.02;;;13.07;;
34725;SDS011;20951;50.818;4.344;2023-04-24T04:55:26;23.33;;;14.27;;
34725;SDS011;20951;50.818;4.344;2023-04-24T04:58:02;22.45;;;14.52;;
34725;SDS011;20951;50.818;4.344;2023-04-24T05:00:40;24.30;;;15.05;;
34725;SDS011;20951;50.818;4.344;2023-04-24T05:03:18;24.30;;;16.08;;
34725;SDS011;20951;50.818;4.344;2023-04-24T05:05:56;25.30;;;16.33;;
34725;SDS011;20951;50.818;4.344;2023-04-24T05:08:25;27.73;;;16.50;;
34725;SDS011;20951;50.818;4.344;2023-04-24T05:10:56;27.58;;;17.58;;
34725;SDS011;20951;50.818;4.344;2023-04-24T05:13:29;27.35;;;16.75;;
34725;SDS011;20951;50.818;4.344;2023-04-24T05:16:04;26.55;;;17.92;;
34725;SDS011;20951;50.818;4.344;2023-04-24T05:18:37;27.30;;;18.35;;
34725;SDS011;20951;50.818;4.344;2023-04-24T05:21:05;28.70;;;18.02;;
34725;SDS011;20951;50.818;4.344;2023-04-24T05:23:54;27.63;;;17.70;;
34725;SDS011;20951;50.818;4.344;2023-04-24T05:26:37;30.17;;;17.75;;
34725;SDS011;20951;50.818;4.344;2023-04-24T05:29:15;30.50;;;19.95;;
34725;SDS011;20951;50.818;4.344;2023-04-24T05:31:44;28.83;;;18.50;;
34725;SDS011;20951;50.818;4.344;2023-04-24T05:34:20;27.85;;;17.83;;
34725;SDS011;20951;50.818;4.344;2023-04-24T05:36:56;33.05;;;19.00;;
34725;SDS011;20951;50.818;4.344;2023-04-24T05:39:32;34.33;;;19.95;;
34725;SDS011;20951;50.818;4.344;2023-04-24T05:42:11;30.38;;;19.17;;
34725;SDS011;20951;50.818;4.344;2023-04-24T05:44:39;28.30;;;17.52;;
34725;SDS011;20951;50.818;4.344;2023-04-24T05:47:15;28.45;;;17.85;;
34725;SDS011;20951;50.818;4.344;2023-04-24T05:49:51;29.95;;;18.73;;
34725;SDS011;20951;50.818;4.344;2023-04-24T05:52:18;28.30;;;18.65;;
34725;SDS011;20951;50.818;4.344;2023-04-24T05:54:49;31.70;;;19.40;;
34725;SDS011;20951;50.818;4.344;2023-04-24T06:00:21;28.48;;;19.08;;
34725;SDS011;20951;50.818;4.344;2023-04-24T06:03:12;31.20;;;20.02;;
34725;SDS011;20951;50.818;4.344;2023-04-24T06:06:03;32.10;;;20.20;;
34725;SDS011;20951;50.818;4.344;2023-04-24T06:08:32;32.10;;;19.60;;
34725;SDS011;20951;50.818;4.344;2023-04-24T06:11:12;28.73;;;18.30;;
34725;SDS011;20951;50.818;4.344;2023-04-24T06:13:59;32.67;;;20.25;;
34725;SDS011;20951;50.818;4.344;2023-04-24T06:16:27;32.25;;;20.08;;
34725;SDS011;20951;50.818;4.344;2023-04-24T06:18:55;34.70;;;20.38;;
34725;SDS011;20951;50.818;4.344;2023-04-24T06:21:23;36.85;;;20.48;;
34725;SDS011;20951;50.818;4.344;2023-04-24T06:24:02;35.92;;;19.95;;
34725;SDS011;20951;50.818;4.344;2023-04-24T06:26:33;35.40;;;20.95;;
34725;SDS011;20951;50.818;4.344;2023-04-24T06:28:59;37.50;;;21.90;;
34725;SDS011;20951;50.818;4.344;2023-04-24T06:31:43;37.50;;;21.83;;
34725;SDS011;20951;50.818;4.344;2023-04-24T06:34:27;33.85;;;21.95;;
34725;SDS011;20951;50.818;4.344;2023-04-24T06:37:06;32.30;;;21.35;;
34725;SDS011;20951;50.818;4.344;2023-04-24T06:39:36;35.58;;;20.38;;
34725;SDS011;20951;50.818;4.344;2023-04-24T06:42:04;42.47;;;22.77;;
34725;SDS011;20951;50.818;4.344;2023-04-24T06:44:43;38.28;;;22.10;;
34725;SDS011;20951;50.818;4.344;2023-04-24T06:47:21;38.78;;;22.55;;
34725;SDS011;20951;50.818;4.344;2023-04-24T06:49:57;41.58;;;22.75;;
34725;SDS011;20951;50.818;4.344;2023-04-24T06:52:26;44.30;;;24.08;;
34725;SDS011;20951;50.818;4.344;2023-04-24T06:55:02;38.17;;;23.48;;
34725;SDS011;20951;50.818;4.344;2023-04-24T06:57:32;41.00;;;23.23;;
34725;SDS011;20951;50.818;4.344;2023-04-24T07:00:13;40.63;;;23.85;;
34725;SDS011;20951;50.818;4.344;2023-04-24T07:02:49;38.17;;;23.73;;
34725;SDS011;20951;50.818;4.344;2023-04-24T07:05:20;43.03;;;24.20;;
34725;SDS011;20951;50.818;4.344;2023-04-24T07:07:49;44.58;;;23.35;;
34725;SDS011;20951;50.818;4.344;2023-04-24T07:10:18;41.05;;;22.90;;
34725;SDS011;20951;50.818;4.344;2023-04-24T07:12:54;37.25;;;23.08;;
34725;SDS011;20951;50.818;4.344;2023-04-24T07:15:23;39.13;;;22.70;;
34725;SDS011;20951;50.818;4.344;2023-04-24T07:18:00;38.92;;;21.33;;
34725;SDS011;20951;50.818;4.344;2023-04-24T07:20:25;37.50;;;21.98;;
34725;SDS011;20951;50.818;4.344;2023-04-24T07:23:02;36.95;;;21.05;;
34725;SDS011;20951;50.818;4.344;2023-04-24T07:25:27;36.88;;;21.30;;
34725;SDS011;20951;50.818;4.344;2023-04-24T07:27:59;41.85;;;23.17;;
34725;SDS011;20951;50.818;4.344;2023-04-24T07:30:47;33.13;;;20.05;;
34725;SDS011;20951;50.818;4.344;2023-04-24T07:33:15;35.33;;;20.10;;
34725;SDS011;20951;50.818;4.344;2023-04-24T07:35:44;33.20;;;20.42;;
34725;SDS011;20951;50.818;4.344;2023-04-24T07:38:09;37.33;;;21.23;;
34725;SDS011;20951;50.818;4.344;2023-04-24T07:40:49;36.22;;;21.13;;
34725;SDS011;20951;50.818;4.344;2023-04-24T07:43:17;34.40;;;21.45;;
34725;SDS011;20951;50.818;4.344;2023-04-24T07:46:04;34.70;;;18.77;;
34725;SDS011;20951;50.818;4.344;2023-04-24T07:48:39;33.38;;;20.33;;
34725;SDS011;20951;50.818;4.344;2023-04-24T07:51:16;31.08;;;20.35;;
34725;SDS011;20951;50.818;4.344;2023-04-24T07:53:44;35.45;;;19.90;;
34725;SDS011;20951;50.818;4.344;2023-04-24T07:56:10;31.73;;;17.33;;
34725;SDS011;20951;50.818;4.344;2023-04-24T07:58:46;32.83;;;17.90;;
34725;SDS011;20951;50.818;4.344;2023-04-24T08:01:19;34.65;;;18.50;;
34725;SDS011;20951;50.818;4.344;2023-04-24T08:03:50;24.90;;;16.70;;
34725;SDS011;20951;50.818;4.344;2023-04-24T08:06:21;25.95;;;15.57;;
34725;SDS011;20951;50.818;4.344;2023-04-24T08:08:47;30.15;;;14.38;;
34725;SDS011;20951;50.818;4.344;2023-04-24T08:11:18;26.52;;;13.13;;
34725;SDS011;20951;50.818;4.344;2023-04-24T08:13:47;23.60;;;11.63;;
34725;SDS011;20951;50.818;4.344;2023-04-24T08:16:23;24.27;;;12.18;;
34725;SDS011;20951;50.818;4.344;2023-04-24T08:18:49;23.58;;;11.82;;
34725;SDS011;20951;50.818;4.344;2023-04-24T08:21:18;23.23;;;11.07;;
34725;SDS011;20951;50.818;4.344;2023-04-24T08:23:55;22.58;;;11.20;;
34725;SDS011;20951;50.818;4.344;2023-04-24T08:26:21;22.20;;;11.20;;
34725;SDS011;20951;50.818;4.344;2023-04-24T08:28:50;23.55;;;11.30;;
34725;SDS011;20951;50.818;4.344;2023-04-24T08:31:15;18.08;;;10.20;;
34725;SDS011;20951;50.818;4.344;2023-04-24T08:33:50;23.00;;;10.85;;
34725;SDS011;20951;50.818;4.344;2023-04-24T08:36:27;19.08;;;10.02;;
34725;SDS011;20951;50.818;4.344;2023-04-24T08:39:22;23.27;;;10.18;;
34725;SDS011;20951;50.818;4.344;2023-04-24T08:42:07;23.30;;;9.73;;
34725;SDS011;20951;50.818;4.344;2023-04-24T08:44:34;18.30;;;9.70;;
34725;SDS011;20951;50.818;4.344;2023-04-24T08:47:14;17.17;;;7.90;;
34725;SDS011;20951;50.818;4.344;2023-04-24T08:49:46;19.13;;;8.27;;
34725;SDS011;20951;50.818;4.344;2023-04-24T08:52:16;17.27;;;6.88;;
34725;SDS011;20951;50.818;4.344;2023-04-24T08:54:47;16.45;;;6.40;;
34725;SDS011;20951;50.818;4.344;2023-04-24T08:57:14;14.68;;;6.00;;
34725;SDS011;20951;50.818;4.344;2023-04-24T08:59:40;13.35;;;5.53;;
34725;SDS011;20951;50.818;4.344;2023-04-24T09:02:10;14.55;;;5.60;;
34725;SDS011;20951;50.818;4.344;2023-04-24T09:04:36;10.90;;;5.53;;
34725;SDS011;20951;50.818;4.344;2023-04-24T09:07:06;12.98;;;5.13;;
34725;SDS011;20951;50.818;4.344;2023-04-24T09:09:33;14.45;;;6.40;;
34725;SDS011;20951;50.818;4.344;2023-04-24T09:12:01;13.90;;;5.65;;
34725;SDS011;20951;50.818;4.344;2023-04-24T09:14:28;13.73;;;5.90;;
34725;SDS011;20951;50.818;4.344;2023-04-24T09:17:03;11.38;;;5.93;;
34725;SDS011;20951;50.818;4.344;2023-04-24T09:19:29;13.73;;;5.95;;
34725;SDS011;20951;50.818;4.344;2023-04-24T09:21:55;12.18;;;5.05;;
34725;SDS011;20951;50.818;4.344;2023-04-24T09:24:24;12.73;;;5.30;;
34725;SDS011;20951;50.818;4.344;2023-04-24T09:26:57;14.75;;;5.63;;
34725;SDS011;20951;50.818;4.344;2023-04-24T09:29:24;14.73;;;6.10;;
34725;SDS011;20951;50.818;4.344;2023-04-24T09:32:04;16.35;;;6.40;;
34725;SDS011;20951;50.818;4.344;2023-04-24T09:35:11;13.68;;;5.38;;
34725;SDS011;20951;50.818;4.344;2023-04-24T09:37:46;10.50;;;5.07;;
34725;SDS011;20951;50.818;4.344;2023-04-24T09:40:23;14.02;;;5.28;;
34725;SDS011;20951;50.818;4.344;2023-04-24T09:42:53;10.75;;;4.53;;
34725;SDS011;20951;50.818;4.344;2023-04-24T09:45:28;11.13;;;4.75;;
34725;SDS011;20951;50.818;4.344;2023-04-24T09:48:00;11.57;;;4.88;;
34725;SDS011;20951;50.818;4.344;2023-04-24T09:50:26;11.88;;;5.15;;
34725;SDS011;20951;50.818;4.344;2023-04-24T09:52:57;13.38;;;5.28;;
34725;SDS011;20951;50.818;4.344;2023-04-24T09:55:39;12.77;;;5.70;;
34725;SDS011;20951;50.818;4.344;2023-04-24T09:58:26;13.82;;;5.55;;
34725;SDS011;20951;50.818;4.344;2023-04-24T10:00:54;11.93;;;5.22;;
34725;SDS011;20951;50.818;4.344;2023-04-24T10:03:30;12.93;;;5.22;;
34725;SDS011;20951;50.818;4.344;2023-04-24T10:06:07;9.27;;;4.28;;
34725;SDS011;20951;50.818;4.344;2023-04-24T10:08:45;11.73;;;4.85;;
34725;SDS011;20951;50.818;4.344;2023-04-24T10:11:17;10.43;;;4.85;;
34725;SDS011;20951;50.818;4.344;2023-04-24T10:13:49;13.65;;;5.35;;
34725;SDS011;20951;50.818;4.344;2023-04-24T10:16:15;11.52;;;5.43;;
34725;SDS011;20951;50.818;4.344;2023-04-24T10:18:52;15.85;;;5.57;;
34725;SDS011;20951;50.818;4.344;2023-04-24T10:21:28;12.73;;;5.65;;
34725;SDS011;20951;50.818;4.344;2023-04-24T10:24:14;10.63;;;5.95;;
34725;SDS011;20951;50.818;4.344;2023-04-24T10:26:51;13.35;;;6.38;;
34725;SDS011;20951;50.818;4.344;2023-04-24T10:29:18;12.98;;;5.90;;
34725;SDS011;20951;50.818;4.344;2023-04-24T10:31:53;11.77;;;5.97;;
34725;SDS011;20951;50.818;4.344;2023-04-24T10:34:26;13.02;;;6.80;;
34725;SDS011;20951;50.818;4.344;2023-04-24T10:36:53;11.10;;;6.25;;
34725;SDS011;20951;50.818;4.344;2023-04-24T10:39:23;12.75;;;6.28;;
34725;SDS011;20951;50.818;4.344;2023-04-24T10:41:54;11.48;;;6.47;;
34725;SDS011;20951;50.818;4.344;2023-04-24T10:44:35;13.60;;;6.00;;
34725;SDS011;20951;50.818;4.344;2023-04-24T10:47:04;11.10;;;6.07;;
34725;SDS011;20951;50.818;4.344;2023-04-24T10:49:31;11.43;;;5.47;;
34725;SDS011;20951;50.818;4.344;2023-04-24T10:52:09;14.40;;;7.28;;
34725;SDS011;20951;50.818;4.344;2023-04-24T10:54:46;12.77;;;6.10;;
34725;SDS011;20951;50.818;4.344;2023-04-24T10:57:26;11.38;;;6.32;;
34725;SDS011;20951;50.818;4.344;2023-04-24T11:02:48;11.10;;;6.60;;
34725;SDS011;20951;50.818;4.344;2023-04-24T11:05:18;17.33;;;7.55;;
34725;SDS011;20951;50.818;4.344;2023-04-24T11:08:10;10.88;;;6.40;;
34725;SDS011;20951;50.818;4.344;2023-04-24T11:10:55;13.52;;;6.82;;
34725;SDS011;20951;50.818;4.344;2023-04-24T11:14:00;11.43;;;5.55;;
34725;SDS011;20951;50.818;4.344;2023-04-24T11:21:38;11.90;;;6.55;;
34725;SDS011;20951;50.818;4.344;2023-04-24T11:24:22;9.93;;;5.78;;
34725;SDS011;20951;50.818;4.344;2023-04-24T11:27:05;13.48;;;6.28;;
34725;SDS011;20951;50.818;4.344;2023-04-24T11:29:39;12.23;;;6.03;;
34725;SDS011;20951;50.818;4.344;2023-04-24T11:32:27;13.55;;;6.20;;
34725;SDS011;20951;50.818;4.344;2023-04-24T11:35:19;12.73;;;6.85;;
34725;SDS011;20951;50.818;4.344;2023-04-24T11:37:55;15.13;;;6.88;;
34725;SDS011;20951;50.818;4.344;2023-04-24T11:40:33;11.60;;;7.22;;
34725;SDS011;20951;50.818;4.344;2023-04-24T11:43:07;14.88;;;6.90;;
34725;SDS011;20951;50.818;4.344;2023-04-24T11:45:47;12.10;;;7.25;;
34725;SDS011;20951;50.818;4.344;2023-04-24T11:48:26;14.13;;;7.55;;
34725;SDS011;20951;50.818;4.344;2023-04-24T11:51:01;15.88;;;7.65;;
34725;SDS011;20951;50.818;4.344;2023-04-24T11:53:27;12.15;;;7.90;;
34725;SDS011;20951;50.818;4.344;2023-04-24T11:55:55;13.02;;;7.68;;
34725;SDS011;20951;50.818;4.344;2023-04-24T12:00:56;13.90;;;7.95;;
34725;SDS011;20951;50.818;4.344;2023-04-24T12:03:33;15.55;;;8.75;;
34725;SDS011;20951;50.818;4.344;2023-04-24T12:06:11;12.15;;;8.07;;
34725;SDS011;20951;50.818;4.344;2023-04-24T12:08:37;10.45;;;6.95;;
34725;SDS011;20951;50.818;4.344;2023-04-24T12:11:14;14.50;;;6.95;;
34725;SDS011;20951;50.818;4.344;2023-04-24T12:13:44;11.88;;;6.82;;
34725;SDS011;20951;50.818;4.344;2023-04-24T12:16:21;13.07;;;7.25;;
34725;SDS011;20951;50.818;4.344;2023-04-24T12:18:55;9.65;;;7.10;;
34725;SDS011;20951;50.818;4.344;2023-04-24T12:21:27;12.38;;;7.50;;
34725;SDS011;20951;50.818;4.344;2023-04-24T12:23:55;12.55;;;6.95;;
34725;SDS011;20951;50.818;4.344;2023-04-24T12:26:21;12.40;;;6.95;;
34725;SDS011;20951;50.818;4.344;2023-04-24T12:28:48;11.05;;;7.90;;
34725;SDS011;20951;50.818;4.344;2023-04-24T12:31:20;12.13;;;7.68;;
34725;SDS011;20951;50.818;4.344;2023-04-24T12:33:57;11.65;;;7.88;;
34725;SDS011;20951;50.818;4.344;2023-04-24T12:36:34;10.25;;;7.63;;
34725;SDS011;20951;50.818;4.344;2023-04-24T12:39:14;10.95;;;7.15;;
34725;SDS011;20951;50.818;4.344;2023-04-24T12:41:55;11.87;;;6.27;;
34725;SDS011;20951;50.818;4.344;2023-04-24T12:44:30;12.07;;;6.93;;
34725;SDS011;20951;50.818;4.344;2023-04-24T12:46:59;10.43;;;6.50;;
34725;SDS011;20951;50.818;4.344;2023-04-24T12:49:26;8.98;;;6.57;;
34725;SDS011;20951;50.818;4.344;2023-04-24T12:51:53;11.43;;;6.45;;
34725;SDS011;20951;50.818;4.344;2023-04-24T12:54:19;10.10;;;6.13;;
34725;SDS011;20951;50.818;4.344;2023-04-24T12:56:48;10.35;;;5.55;;
34725;SDS011;20951;50.818;4.344;2023-04-24T12:59:23;9.27;;;5.00;;
34725;SDS011;20951;50.818;4.344;2023-04-24T13:01:51;8.40;;;5.35;;
34725;SDS011;20951;50.818;4.344;2023-04-24T13:04:17;9.18;;;4.95;;
34725;SDS011;20951;50.818;4.344;2023-04-24T13:06:46;9.90;;;5.07;;
34725;SDS011;20951;50.818;4.344;2023-04-24T13:09:11;9.02;;;5.32;;
34725;SDS011;20951;50.818;4.344;2023-04-24T13:11:40;10.70;;;5.30;;
34725;SDS011;20951;50.818;4.344;2023-04-24T13:14:06;10.40;;;5.72;;
34725;SDS011;20951;50.818;4.344;2023-04-24T13:16:43;9.07;;;5.35;;
34725;SDS011;20951;50.818;4.344;2023-04-24T13:19:09;7.72;;;4.78;;
34725;SDS011;20951;50.818;4.344;2023-04-24T13:21:45;10.20;;;5.05;;
34725;SDS011;20951;50.818;4.344;2023-04-24T13:24:10;9.25;;;4.38;;
34725;SDS011;20951;50.818;4.344;2023-04-24T13:26:39;7.95;;;4.32;;
34725;SDS011;20951;50.818;4.344;2023-04-24T13:29:05;9.82;;;4.65;;
34725;SDS011;20951;50.818;4.344;2023-04-24T13:31:31;8.55;;;4.20;;
34725;SDS011;20951;50.818;4.344;2023-04-24T13:33:57;8.30;;;4.10;;
34725;SDS011;20951;50.818;4.344;2023-04-24T13:36:30;8.10;;;4.15;;
34725;SDS011;20951;50.818;4.344;2023-04-24T13:39:10;8.00;;;4.00;;
34725;SDS011;20951;50.818;4.344;2023-04-24T13:41:36;8.18;;;4.30;;
34725;SDS011;20951;50.818;4.344;2023-04-24T13:44:17;7.70;;;4.28;;
34725;SDS011;20951;50.818;4.344;2023-04-24T13:46:48;8.60;;;3.75;;
34725;SDS011;20951;50.818;4.344;2023-04-24T13:49:27;8.70;;;4.07;;
34725;SDS011;20951;50.818;4.344;2023-04-24T13:52:04;7.40;;;3.70;;
34725;SDS011;20951;50.818;4.344;2023-04-24T13:54:49;11.57;;;4.40;;
34725;SDS011;20951;50.818;4.344;2023-04-24T13:57:15;8.27;;;4.28;;
34725;SDS011;20951;50.818;4.344;2023-04-24T13:59:51;8.02;;;4.07;;
34725;SDS011;20951;50.818;4.344;2023-04-24T14:02:33;9.85;;;3.88;;
34725;SDS011;20951;50.818;4.344;2023-04-24T14:05:01;7.50;;;3.53;;
34725;SDS011;20951;50.818;4.344;2023-04-24T14:07:37;7.07;;;3.50;;
34725;SDS011;20951;50.818;4.344;2023-04-24T14:10:06;7.10;;;3.40;;
34725;SDS011;20951;50.818;4.344;2023-04-24T14:12:42;7.00;;;3.83;;
34725;SDS011;20951;50.818;4.344;2023-04-24T14:15:16;9.20;;;3.22;;
34725;SDS011;20951;50.818;4.344;2023-04-24T14:17:44;6.35;;;3.00;;
34725;SDS011;20951;50.818;4.344;2023-04-24T14:20:11;6.30;;;3.00;;
34725;SDS011;20951;50.818;4.344;2023-04-24T14:22:47;5.70;;;2.90;;
34725;SDS011;20951;50.818;4.344;2023-04-24T14:25:28;8.30;;;2.83;;
34725;SDS011;20951;50.818;4.344;2023-04-24T14:27:58;7.05;;;2.83;;
34725;SDS011;20951;50.818;4.344;2023-04-24T14:30:37;6.78;;;2.70;;
34725;SDS011;20951;50.818;4.344;2023-04-24T14:33:20;6.63;;;2.70;;
34725;SDS011;20951;50.818;4.344;2023-04-24T14:35:49;6.45;;;2.97;;
34725;SDS011;20951;50.818;4.344;2023-04-24T14:38:39;5.60;;;2.55;;
34725;SDS011;20951;50.818;4.344;2023-04-24T14:41:23;7.10;;;2.30;;
34725;SDS011;20951;50.818;4.344;2023-04-24T14:43:49;5.95;;;2.22;;
34725;SDS011;20951;50.818;4.344;2023-04-24T14:46:24;7.15;;;2.75;;
34725;SDS011;20951;50.818;4.344;2023-04-24T14:49:05;7.38;;;2.42;;
34725;SDS011;20951;50.818;4.344;2023-04-24T14:51:40;6.60;;;2.67;;
34725;SDS011;20951;50.818;4.344;2023-04-24T14:54:06;6.03;;;2.90;;
34725;SDS011;20951;50.818;4.344;2023-04-24T14:56:42;6.28;;;2.22;;
34725;SDS011;20951;50.818;4.344;2023-04-24T14:59:11;6.88;;;2.70;;
34725;SDS011;20951;50.818;4.344;2023-04-24T15:01:40;5.18;;;2.40;;
34725;SDS011;20951;50.818;4.344;2023-04-24T15:04:19;6.05;;;2.60;;
34725;SDS011;20951;50.818;4.344;2023-04-24T15:06:47;6.30;;;2.60;;
34725;SDS011;20951;50.818;4.344;2023-04-24T15:09:26;6.88;;;2.42;;
34725;SDS011;20951;50.818;4.344;2023-04-24T15:11:59;8.65;;;2.70;;
34725;SDS011;20951;50.818;4.344;2023-04-24T15:14:38;10.82;;;2.90;;
34725;SDS011;20951;50.818;4.344;2023-04-24T15:17:07;8.23;;;2.72;;
34725;SDS011;20951;50.818;4.344;2023-04-24T15:19:35;5.75;;;2.40;;
34725;SDS011;20951;50.818;4.344;2023-04-24T15:22:01;8.68;;;2.63;;